Time;durP1;ratioP1;P1;durP2;ratioP2;P2;SDS_P1;SDS_P2;PMS_P1;PMS_P2;Temp;Humidity;BMP_temperature;BMP_pressure;BME280_temperature;BME280_humidity;BME280_pressure;Samples;Min_cycle;Max_cycle;Signal;HPM_P1;HPM_P2
2023/09/09 00:01:59;;;;;;;12.00;7.88;;;20.90;99.90;;;20.49;100.00;101022.22;4204191;28;20021;-75
2023/09/09 00:04:00;;;;;;;9.45;7.85;;;20.90;99.90;;;20.46;100.00;101019.19;4203918;28;20382;-75
2023/09/09 00:06:11;;;;;;;13.60;8.07;;;20.90;99.90;;;20.50;100.00;101020.38;4203667;28;20551;-75
2023/09/09 00:08:12;;;;;;;9.63;7.47;;;20.90;99.90;;;20.48;100.00;101015.25;4201672;28;21732;-75
2023/09/09 00:10:13;;;;;;;10.65;8.73;;;20.90;99.90;;;20.45;100.00;101018.34;4202227;28;20024;-75
2023/09/09 00:12:14;;;;;;;9.48;8.32;;;20.80;99.90;;;20.43;100.00;101007.00;4203931;28;20120;-75
2023/09/09 00:14:15;;;;;;;10.65;8.52;;;20.80;99.90;;;20.44;100.00;101014.03;4185823;28;20017;-76
2023/09/09 00:16:15;;;;;;;16.90;9.85;;;20.80;99.90;;;20.46;100.00;101008.47;4203811;28;20028;-76
2023/09/09 00:18:16;;;;;;;10.80;9.50;;;20.80;99.90;;;20.47;100.00;101007.41;4202374;28;20437;-76
2023/09/09 00:20:17;;;;;;;12.00;9.40;;;20.80;99.90;;;20.43;100.00;101005.16;4199214;28;20020;-76
2023/09/09 00:22:18;;;;;;;10.98;8.32;;;20.90;99.90;;;20.45;100.00;101004.97;4202217;28;20028;-76
2023/09/09 00:24:19;;;;;;;10.75;9.10;;;20.90;99.90;;;20.45;100.00;101007.63;4202580;28;20032;-76
2023/09/09 00:26:20;;;;;;;12.93;10.05;;;20.80;99.90;;;20.47;100.00;101002.88;4203765;28;20028;-76
2023/09/09 00:28:21;;;;;;;13.48;11.50;;;20.90;99.90;;;20.46;100.00;101001.22;4203622;28;20032;-76
2023/09/09 00:30:22;;;;;;;12.23;9.27;;;20.90;99.90;;;20.48;100.00;100999.16;4203599;28;20472;-75
2023/09/09 00:32:23;;;;;;;11.93;10.65;;;20.90;99.90;;;20.48;100.00;100999.16;4203424;28;20028;-75
2023/09/09 00:34:24;;;;;;;12.63;9.95;;;20.90;99.90;;;20.47;100.00;100999.38;4203505;28;20431;-75
2023/09/09 00:36:25;;;;;;;11.00;9.27;;;20.90;99.90;;;20.43;100.00;100990.94;4203131;28;20031;-75
2023/09/09 00:38:26;;;;;;;8.82;7.95;;;20.80;99.90;;;20.39;100.00;100995.91;4201899;28;20044;-75
2023/09/09 00:40:26;;;;;;;10.00;8.65;;;20.80;99.90;;;20.33;100.00;100995.94;4202397;28;20115;-76
2023/09/09 00:42:27;;;;;;;12.90;11.35;;;20.70;99.90;;;20.30;100.00;100988.34;4194979;28;20029;-76
2023/09/09 00:44:28;;;;;;;10.68;8.98;;;20.70;99.90;;;20.32;100.00;100986.25;4195777;28;20020;-76
2023/09/09 00:46:30;;;;;;;8.88;7.30;;;20.70;99.90;;;20.28;100.00;100987.72;4199073;28;20546;-76
2023/09/09 00:48:30;;;;;;;9.65;7.10;;;20.70;99.90;;;20.24;100.00;100997.19;4203379;28;20046;-76
2023/09/09 00:50:31;;;;;;;7.97;6.85;;;20.70;99.90;;;20.16;100.00;100989.41;4203282;28;20020;-76
2023/09/09 00:52:32;;;;;;;7.25;6.53;;;20.60;99.90;;;20.08;100.00;100989.63;4203310;28;20032;-76
2023/09/09 00:54:33;;;;;;;7.30;6.60;;;20.60;99.90;;;20.07;100.00;100990.66;4201929;28;20024;-76
2023/09/09 00:56:34;;;;;;;7.38;6.57;;;20.50;99.90;;;20.01;100.00;100989.63;4188921;28;20029;-76
2023/09/09 00:58:35;;;;;;;12.75;8.68;;;20.50;99.90;;;20.01;100.00;100988.84;4202009;28;20107;-76
2023/09/09 01:00:37;;;;;;;10.30;9.32;;;20.40;99.90;;;20.01;100.00;100992.31;4203008;28;20036;-75
2023/09/09 01:02:40;;;;;;;10.20;8.95;;;20.40;99.90;;;20.00;100.00;100982.66;4202951;28;20024;-75
2023/09/09 01:04:41;;;;;;;14.98;11.77;;;20.40;99.90;;;19.98;100.00;100984.69;4202909;28;20567;-75
2023/09/09 01:06:43;;;;;;;10.95;9.85;;;20.40;99.90;;;19.99;100.00;100990.88;4201124;28;20091;-75
2023/09/09 01:08:44;;;;;;;9.50;7.82;;;20.40;99.90;;;19.96;100.00;100985.94;4201697;28;20031;-75
2023/09/09 01:10:45;;;;;;;9.20;7.70;;;20.40;99.90;;;19.92;100.00;100977.53;4201617;28;20403;-75
2023/09/09 01:12:46;;;;;;;8.73;7.80;;;20.30;99.90;;;19.87;100.00;100983.50;4202839;28;20024;-75
2023/09/09 01:14:46;;;;;;;9.90;8.88;;;20.30;99.90;;;19.85;100.00;100985.59;4203034;28;20107;-75
2023/09/09 01:16:51;;;;;;;11.60;10.45;;;20.30;99.90;;;19.85;100.00;100979.41;4202859;28;20029;-75
2023/09/09 01:18:53;;;;;;;16.88;11.02;;;20.30;99.90;;;19.82;100.00;100983.34;4201359;28;20028;-75
2023/09/09 01:21:10;;;;;;;12.38;10.10;;;20.30;99.90;;;19.86;100.00;100981.06;4201299;28;20059;-75
2023/09/09 01:23:11;;;;;;;14.70;10.38;;;20.30;99.90;;;19.84;100.00;100981.25;4184467;28;20025;-75
2023/09/09 01:25:13;;;;;;;11.52;10.43;;;20.30;99.90;;;19.83;100.00;100971.56;4201470;28;20036;-76
2023/09/09 01:27:14;;;;;;;13.38;11.68;;;20.20;99.90;;;19.84;100.00;100983.94;4201496;28;20035;-75
2023/09/09 01:29:15;;;;;;;13.68;12.38;;;20.30;99.90;;;19.82;100.00;100975.31;4202721;28;20075;-75
2023/09/09 01:31:16;;;;;;;16.85;12.23;;;20.30;99.90;;;19.84;100.00;100983.94;4201362;28;20055;-75
2023/09/09 01:33:18;;;;;;;15.15;12.52;;;20.20;99.90;;;19.83;100.00;100971.56;4201084;28;20480;-75
2023/09/09 01:35:18;;;;;;;13.68;10.25;;;20.30;99.90;;;19.82;100.00;100980.66;4200726;28;20103;-75
2023/09/09 01:37:19;;;;;;;16.15;12.90;;;20.30;99.90;;;19.77;100.00;100977.78;4201134;28;20519;-75
2023/09/09 01:39:20;;;;;;;13.30;11.90;;;20.20;99.90;;;19.79;100.00;100977.56;4202582;28;20024;-75
2023/09/09 01:41:21;;;;;;;10.73;9.60;;;20.20;99.90;;;19.71;100.00;100975.13;4202378;28;20028;-75
2023/09/09 01:43:22;;;;;;;11.30;10.10;;;20.20;99.90;;;19.72;100.00;100980.25;4187503;28;20025;-75
2023/09/09 01:45:23;;;;;;;13.48;11.98;;;20.20;99.90;;;19.72;100.00;100984.78;4190390;28;20369;-75
2023/09/09 01:47:24;;;;;;;12.90;11.68;;;20.20;99.90;;;19.72;100.00;100985.63;4202346;28;20024;-75
2023/09/09 01:49:24;;;;;;;15.32;13.70;;;20.10;99.90;;;19.73;100.00;100979.25;4200973;28;20024;-75
2023/09/09 01:51:26;;;;;;;15.68;12.38;;;20.10;99.90;;;19.71;100.00;100981.28;4201996;28;20029;-75
2023/09/09 01:53:27;;;;;;;13.95;11.82;;;20.10;99.90;;;19.69;100.00;100991.38;4201119;28;20397;-75
2023/09/09 01:55:28;;;;;;;11.70;10.60;;;20.10;99.90;;;19.65;100.00;100982.13;4202292;28;20032;-75
2023/09/09 01:57:29;;;;;;;14.13;10.07;;;20.10;99.90;;;19.62;100.00;100990.56;4201931;28;20024;-75
2023/09/09 01:59:30;;;;;;;10.10;8.98;;;20.10;99.90;;;19.57;100.00;100984.19;4200714;28;20064;-75
2023/09/09 02:01:31;;;;;;;13.93;10.40;;;20.00;99.90;;;19.52;100.00;100982.16;4189341;28;20023;-75
2023/09/09 02:03:31;;;;;;;9.93;8.77;;;20.00;99.90;;;19.50;100.00;100986.09;4200966;28;20020;-75
2023/09/09 02:05:32;;;;;;;11.45;10.30;;;20.00;99.90;;;19.47;100.00;100992.69;4195558;28;20031;-75
2023/09/09 02:07:33;;;;;;;13.80;12.20;;;19.90;99.90;;;19.46;100.00;100992.88;4201947;28;20393;-75
2023/09/09 02:09:34;;;;;;;14.43;11.93;;;19.90;99.90;;;19.45;100.00;100988.53;4200654;28;20102;-75
2023/09/09 02:11:35;;;;;;;13.07;11.68;;;19.90;99.90;;;19.47;100.00;100994.53;4191016;28;20024;-75
2023/09/09 02:13:36;;;;;;;13.57;12.13;;;19.90;99.90;;;19.43;100.00;100995.97;4195302;28;20025;-75
2023/09/09 02:15:36;;;;;;;11.75;10.55;;;19.90;99.90;;;19.41;100.00;100998.84;4200587;28;20033;-75
2023/09/09 02:17:37;;;;;;;11.70;10.45;;;19.90;99.90;;;19.38;100.00;100993.06;4201300;28;20388;-76
2023/09/09 02:19:38;;;;;;;10.98;9.98;;;19.80;99.90;;;19.33;100.00;100989.16;4201994;28;20037;-76
2023/09/09 02:21:39;;;;;;;14.82;12.10;;;19.80;99.90;;;19.33;100.00;100985.63;4201695;28;20031;-75
2023/09/09 02:23:42;;;;;;;11.30;10.20;;;19.80;99.90;;;19.30;100.00;100983.38;4217324;28;20016;-76
2023/09/09 02:25:43;;;;;;;9.73;8.38;;;19.80;99.90;;;19.25;100.00;100988.53;4200512;28;20024;-76
2023/09/09 02:27:43;;;;;;;9.00;8.18;;;19.70;99.90;;;19.17;100.00;100981.56;4189606;28;20058;-75
2023/09/09 02:29:44;;;;;;;9.60;8.60;;;19.70;99.90;;;19.11;100.00;100990.41;4201880;28;20074;-75
2023/09/09 02:31:45;;;;;;;10.15;9.10;;;19.60;99.90;;;19.03;100.00;100987.09;4201662;28;20032;-76
2023/09/09 02:33:46;;;;;;;10.43;9.30;;;19.50;99.90;;;19.01;100.00;100989.16;4201468;28;20032;-76
2023/09/09 02:35:47;;;;;;;11.38;9.40;;;19.50;99.90;;;18.98;100.00;100989.56;4200365;28;20040;-76
2023/09/09 02:37:48;;;;;;;10.05;9.05;;;19.50;99.90;;;18.93;100.00;100992.03;4193288;28;20055;-76
2023/09/09 02:39:51;;;;;;;10.80;9.70;;;19.40;99.90;;;18.94;100.00;100988.31;4200516;28;20029;-75
2023/09/09 02:41:52;;;;;;;10.75;9.75;;;19.40;99.90;;;18.90;100.00;100990.59;4198955;28;20024;-75
2023/09/09 02:43:52;;;;;;;11.35;10.32;;;19.40;99.90;;;18.85;100.00;100984.19;4190732;28;20412;-75
2023/09/09 02:45:53;;;;;;;9.52;8.63;;;19.40;99.90;;;18.86;100.00;100993.84;4201737;28;20020;-75
2023/09/09 02:47:54;;;;;;;9.15;8.25;;;19.30;99.90;;;18.82;100.00;100985.41;4201645;28;20028;-75
2023/09/09 02:49:55;;;;;;;8.68;7.80;;;19.30;99.90;;;18.76;100.00;100981.72;4201506;28;20151;-75
2023/09/09 02:51:56;;;;;;;11.15;8.10;;;19.30;99.90;;;18.78;100.00;100982.34;4200297;28;20040;-75
2023/09/09 02:53:56;;;;;;;9.85;8.95;;;19.30;99.90;;;18.75;100.00;100985.44;4193102;28;20033;-75
2023/09/09 02:55:57;;;;;;;11.77;9.60;;;19.30;99.90;;;18.72;100.00;100977.81;4201642;28;20032;-75
2023/09/09 02:57:58;;;;;;;12.02;10.65;;;19.20;99.90;;;18.71;100.00;100984.19;4200141;28;20058;-75
2023/09/09 02:59:59;;;;;;;10.40;9.02;;;19.20;99.90;;;18.67;100.00;100982.94;4188318;28;20410;-75
2023/09/09 03:02:01;;;;;;;11.90;9.98;;;19.20;99.90;;;18.67;100.00;100988.28;4192860;28;20036;-75
2023/09/09 03:04:01;;;;;;;11.10;9.68;;;19.10;99.90;;;18.67;100.00;100990.13;4200356;28;20063;-75
2023/09/09 03:06:02;;;;;;;10.57;9.07;;;19.10;99.90;;;18.65;100.00;100987.66;4199496;28;20021;-75
2023/09/09 03:08:07;;;;;;;10.27;9.23;;;19.10;99.90;;;18.63;100.00;100984.38;4201575;28;20495;-75
2023/09/09 03:10:08;;;;;;;10.63;9.55;;;19.10;99.90;;;18.60;100.00;100987.47;4200114;28;20084;-75
2023/09/09 03:12:09;;;;;;;9.82;8.82;;;19.10;99.90;;;18.57;100.00;100990.53;4196681;28;20078;-76
2023/09/09 03:14:10;;;;;;;11.38;9.82;;;19.10;99.90;;;18.52;100.00;100984.13;4201418;28;20074;-75
2023/09/09 03:16:11;;;;;;;9.15;8.27;;;19.00;99.90;;;18.49;100.00;100987.19;4200372;28;20036;-75
2023/09/09 03:18:11;;;;;;;9.88;8.98;;;19.00;99.90;;;18.44;100.00;100985.13;4193044;28;20028;-75
2023/09/09 03:20:13;;;;;;;10.88;8.95;;;19.00;99.90;;;18.40;100.00;100991.88;4201144;28;20024;-75
2023/09/09 03:22:14;;;;;;;10.63;9.57;;;18.90;99.90;;;18.40;100.00;100989.19;4200133;28;20021;-76
2023/09/09 03:24:15;;;;;;;9.98;8.93;;;18.90;99.90;;;18.42;100.00;100989.84;4189392;28;20135;-75
2023/09/09 03:26:18;;;;;;;10.90;9.05;;;18.90;99.90;;;18.37;100.00;100986.94;4201400;28;20445;-75
2023/09/09 03:28:19;;;;;;;12.18;10.07;;;18.90;99.90;;;18.35;100.00;100991.66;4201381;28;20032;-75
2023/09/09 03:30:22;;;;;;;12.80;11.48;;;18.90;99.90;;;18.37;100.00;101002.94;4185093;28;20515;-75
2023/09/09 03:32:23;;;;;;;12.05;10.82;;;18.80;99.90;;;18.35;100.00;100990.81;4189456;28;20088;-75
2023/09/09 03:34:23;;;;;;;10.63;9.63;;;18.90;99.90;;;18.32;100.00;100989.38;4201463;28;20021;-75
2023/09/09 03:36:24;;;;;;;10.00;9.10;;;18.80;99.90;;;18.33;100.00;100988.38;4200908;28;20024;-75
2023/09/09 03:38:25;;;;;;;11.77;10.50;;;18.80;99.90;;;18.31;100.00;100998.41;4200986;28;20190;-75
2023/09/09 03:40:27;;;;;;;16.08;12.07;;;18.80;99.90;;;18.29;100.00;100989.78;4201308;28;20032;-75
2023/09/09 03:42:28;;;;;;;16.02;12.48;;;18.80;99.90;;;18.28;100.00;100987.34;4201277;28;20024;-75
2023/09/09 03:44:29;;;;;;;16.30;13.75;;;18.80;99.90;;;18.29;100.00;100995.13;4200002;28;20029;-75
2023/09/09 03:46:30;;;;;;;14.70;13.18;;;18.80;99.90;;;18.32;100.00;101002.75;4201070;28;20435;-75
2023/09/09 03:48:31;;;;;;;15.23;13.40;;;18.80;99.90;;;18.33;100.00;100991.03;4204223;28;20089;-75
2023/09/09 03:50:32;;;;;;;14.32;12.02;;;18.80;99.90;;;18.30;100.00;100991.44;4202920;28;20032;-75
2023/09/09 03:52:33;;;;;;;13.13;11.23;;;18.80;99.90;;;18.27;100.00;100994.50;4196655;28;20029;-75
2023/09/09 03:54:34;;;;;;;12.48;11.02;;;18.80;99.90;;;18.26;100.00;100995.53;4201070;28;20031;-75
2023/09/09 03:56:35;;;;;;;15.13;11.38;;;18.70;99.90;;;18.23;100.00;100998.59;4204204;28;20400;-75
2023/09/09 03:58:36;;;;;;;17.90;14.40;;;18.70;99.90;;;18.22;100.00;100997.75;4203984;28;20029;-75
2023/09/09 04:00:37;;;;;;;13.75;12.45;;;18.70;99.90;;;18.19;100.00;100995.50;4203747;28;20029;-75
2023/09/09 04:02:38;;;;;;;12.27;10.98;;;18.70;99.90;;;18.21;100.00;100997.97;4204112;28;20016;-76
2023/09/09 04:04:39;;;;;;;13.93;12.52;;;18.70;99.90;;;18.19;100.00;101003.50;4203812;28;20063;-76
2023/09/09 04:06:40;;;;;;;11.88;10.70;;;18.70;99.90;;;18.19;100.00;101002.69;4203896;28;20020;-75
2023/09/09 04:08:41;;;;;;;12.70;11.50;;;18.70;99.90;;;18.19;100.00;100994.66;4204087;28;20025;-75
2023/09/09 04:10:42;;;;;;;12.90;11.50;;;18.70;99.90;;;18.19;100.00;100994.66;4202641;28;20024;-75
2023/09/09 04:12:42;;;;;;;11.82;10.63;;;18.70;99.90;;;18.17;100.00;101004.72;4203033;28;20036;-75
2023/09/09 04:14:43;;;;;;;11.30;10.20;;;18.70;99.90;;;18.12;100.00;101001.84;4202675;28;20024;-76
2023/09/09 04:16:44;;;;;;;11.35;10.18;;;18.60;99.90;;;18.06;100.00;101006.13;4196359;28;20032;-76
2023/09/09 04:18:45;;;;;;;12.68;10.23;;;18.60;99.90;;;18.02;100.00;100998.69;4203633;28;20094;-76
2023/09/09 04:20:46;;;;;;;11.68;10.48;;;18.50;99.90;;;17.99;100.00;101004.44;4202191;28;20035;-76
2023/09/09 04:22:47;;;;;;;10.32;9.23;;;18.50;99.90;;;17.93;100.00;100999.88;4192801;28;20025;-76
2023/09/09 04:24:47;;;;;;;10.50;9.40;;;18.50;99.90;;;17.89;100.00;100994.13;4203638;28;20024;-75
2023/09/09 04:26:48;;;;;;;10.45;9.40;;;18.40;99.90;;;17.90;100.00;101011.78;4202429;28;20054;-75
2023/09/09 04:28:49;;;;;;;10.43;9.50;;;18.40;99.90;;;17.87;100.00;101004.19;4201822;28;20055;-75
2023/09/09 04:30:50;;;;;;;10.18;9.25;;;18.40;99.90;;;17.87;100.00;101000.69;4203636;28;20071;-75
2023/09/09 04:32:51;;;;;;;10.00;9.02;;;18.40;99.90;;;17.84;100.00;100996.56;4203407;28;20032;-75
2023/09/09 04:34:52;;;;;;;11.52;10.13;;;18.40;99.90;;;17.83;100.00;100997.56;4203316;28;20498;-75
2023/09/09 04:36:52;;;;;;;10.90;9.82;;;18.30;99.90;;;17.81;100.00;100991.63;4202933;28;20403;-75
2023/09/09 04:38:53;;;;;;;10.05;9.05;;;18.30;99.90;;;17.82;100.00;100993.28;4203332;28;20029;-75
2023/09/09 04:40:54;;;;;;;11.45;9.07;;;18.30;99.90;;;17.80;100.00;100994.50;4203424;28;20021;-75
2023/09/09 04:42:55;;;;;;;9.38;8.43;;;18.30;99.90;;;17.77;100.00;100984.22;4203497;28;20028;-75
2023/09/09 04:44:56;;;;;;;10.05;9.05;;;18.30;99.90;;;17.74;100.00;100987.28;4203346;28;20082;-75
2023/09/09 04:46:57;;;;;;;10.45;9.38;;;18.30;99.90;;;17.68;100.00;100984.34;4202495;28;20078;-75
2023/09/09 04:48:58;;;;;;;10.85;9.75;;;18.30;99.90;;;17.68;100.00;100981.69;4193887;28;20082;-75
2023/09/09 04:50:59;;;;;;;11.35;9.70;;;18.20;99.90;;;17.65;100.00;100982.06;4203058;28;20032;-76
2023/09/09 04:53:02;;;;;;;10.57;9.15;;;18.10;99.90;;;17.62;100.00;100976.34;4203015;28;20103;-76
2023/09/09 04:55:03;;;;;;;11.88;9.57;;;18.10;99.90;;;17.58;100.00;100981.22;4201724;28;20470;-75
2023/09/09 04:57:04;;;;;;;10.02;8.85;;;18.20;99.90;;;17.56;100.00;100980.59;4192428;28;20488;-75
2023/09/09 04:59:05;;;;;;;11.05;9.95;;;18.10;99.90;;;17.56;100.00;100969.91;4195096;28;20028;-75
2023/09/09 05:01:06;;;;;;;10.05;9.13;;;18.10;99.90;;;17.57;100.00;100978.75;4201882;28;20516;-75
2023/09/09 05:03:07;;;;;;;9.95;9.05;;;18.10;99.90;;;17.56;100.00;100982.44;4201810;28;20036;-75
2023/09/09 05:05:08;;;;;;;9.93;8.50;;;18.10;99.90;;;17.54;100.00;100979.09;4202948;28;20016;-75
2023/09/09 05:07:10;;;;;;;9.35;8.27;;;18.10;99.90;;;17.50;100.00;100972.53;4202998;28;20514;-75
2023/09/09 05:09:11;;;;;;;10.05;8.85;;;18.10;99.90;;;17.50;100.00;100978.66;4202979;28;20051;-75
2023/09/09 05:11:12;;;;;;;10.07;8.68;;;18.00;99.90;;;17.45;100.00;100973.09;4202995;28;20052;-75
2023/09/09 05:13:13;;;;;;;11.13;9.35;;;18.00;99.90;;;17.46;100.00;100973.94;4202893;28;20035;-75
2023/09/09 05:15:14;;;;;;;9.20;8.30;;;18.00;99.90;;;17.41;100.00;100969.16;4202846;28;20020;-75
2023/09/09 05:17:15;;;;;;;9.10;8.20;;;17.90;99.90;;;17.38;100.00;100974.09;4201574;28;20031;-75
2023/09/09 05:19:15;;;;;;;9.68;8.68;;;17.90;99.90;;;17.37;100.00;100978.59;4201411;28;20036;-75
2023/09/09 05:21:16;;;;;;;9.18;8.27;;;17.90;99.90;;;17.35;100.00;100988.59;4192234;28;20024;-75
2023/09/09 05:23:17;;;;;;;10.23;8.63;;;17.90;99.90;;;17.32;100.00;100973.03;4202741;28;20025;-75
2023/09/09 05:25:19;;;;;;;9.88;8.88;;;17.90;99.90;;;17.30;100.00;100977.72;4202755;28;20388;-75
2023/09/09 05:27:20;;;;;;;9.93;8.35;;;17.80;99.90;;;17.27;100.00;100983.44;4201202;28;20021;-75
2023/09/09 05:29:20;;;;;;;10.20;8.63;;;17.80;99.90;;;17.27;100.00;100988.75;4190543;28;20530;-75
2023/09/09 05:31:21;;;;;;;10.60;9.27;;;17.80;99.90;;;17.26;100.00;100988.97;4194881;28;20126;-75
2023/09/09 05:33:22;;;;;;;10.90;9.80;;;17.80;99.90;;;17.23;100.00;100987.50;4202487;28;20021;-75
2023/09/09 05:35:23;;;;;;;9.95;9.02;;;17.80;99.90;;;17.25;100.00;100995.31;4201973;28;20103;-75
2023/09/09 05:37:28;;;;;;;11.30;10.02;;;17.70;99.90;;;17.24;100.00;100999.81;4202272;28;20041;-75
2023/09/09 05:39:29;;;;;;;12.43;11.27;;;17.80;99.90;;;17.25;100.00;100988.13;4202711;28;20078;-75
2023/09/09 05:41:30;;;;;;;11.60;10.43;;;17.70;99.90;;;17.26;100.00;100986.31;4201037;28;20423;-75
2023/09/09 05:43:31;;;;;;;11.35;10.15;;;17.70;99.90;;;17.27;100.00;100988.75;4200274;28;20020;-76
2023/09/09 05:45:32;;;;;;;12.63;10.43;;;17.80;99.90;;;17.34;100.00;100994.97;4190595;28;20024;-76
2023/09/09 05:47:33;;;;;;;17.05;11.57;;;17.80;99.90;;;17.35;100.00;100980.59;4202092;28;20404;-76
2023/09/09 05:49:34;;;;;;;12.75;10.95;;;17.80;99.90;;;17.35;100.00;100985.13;4200859;28;20021;-76
2023/09/09 05:51:35;;;;;;;11.30;10.00;;;17.80;99.90;;;17.31;100.00;100979.38;4201934;28;20056;-76
2023/09/09 05:53:36;;;;;;;9.65;8.68;;;17.80;99.90;;;17.29;100.00;100989.41;4202375;28;20027;-76
2023/09/09 05:55:36;;;;;;;9.30;8.40;;;17.80;99.90;;;17.28;100.00;100985.09;4202104;28;20024;-76
2023/09/09 05:57:39;;;;;;;9.40;8.43;;;17.80;99.90;;;17.28;100.00;100984.25;4202092;28;20021;-76
2023/09/09 05:59:39;;;;;;;11.02;9.57;;;17.80;99.90;;;17.30;100.00;100976.88;4200717;28;20404;-76
2023/09/09 06:01:40;;;;;;;11.13;9.90;;;17.80;99.90;;;17.32;100.00;100988.19;4190994;28;20055;-76
2023/09/09 06:03:42;;;;;;;12.70;11.35;;;17.80;99.90;;;17.33;100.00;100979.97;4202159;28;20082;-76
2023/09/09 06:05:42;;;;;;;12.57;9.90;;;17.90;99.90;;;17.33;100.00;100988.00;4201856;28;20062;-76
2023/09/09 06:07:44;;;;;;;10.98;9.23;;;17.80;99.90;;;17.34;100.00;100983.47;4201559;28;20439;-76
2023/09/09 06:09:45;;;;;;;12.23;10.35;;;17.80;99.90;;;17.36;100.00;100986.78;4202086;28;20036;-76
2023/09/09 06:11:46;;;;;;;11.23;9.85;;;17.90;99.90;;;17.43;100.00;100985.81;4201001;28;20028;-76
2023/09/09 06:13:47;;;;;;;11.20;10.00;;;17.90;99.90;;;17.45;100.00;100975.75;4196884;28;20028;-75
2023/09/09 06:15:48;;;;;;;11.02;9.05;;;17.90;99.90;;;17.50;100.00;100978.66;4200676;28;20029;-75
2023/09/09 06:17:49;;;;;;;12.45;10.55;;;18.00;99.90;;;17.53;100.00;100983.59;4189019;28;20025;-76
2023/09/09 06:19:50;;;;;;;15.90;12.73;;;18.00;99.90;;;17.60;100.00;100989.84;4191918;28;20033;-76
2023/09/09 06:21:51;;;;;;;16.55;13.52;;;18.10;99.90;;;17.63;100.00;100986.78;4201952;28;20023;-76
2023/09/09 06:23:52;;;;;;;12.73;11.43;;;18.10;99.90;;;17.69;100.00;100983.34;4201766;28;20070;-76
2023/09/09 06:25:53;;;;;;;12.27;11.05;;;18.20;99.90;;;17.74;100.00;100987.28;4201854;28;20020;-76
2023/09/09 06:27:53;;;;;;;14.43;11.27;;;18.20;99.90;;;17.82;100.00;100989.78;4201858;28;20040;-76
2023/09/09 06:29:54;;;;;;;13.32;11.65;;;18.20;99.90;;;17.84;100.00;100985.88;4201974;28;20025;-76
2023/09/09 06:31:55;;;;;;;12.55;10.27;;;18.30;99.90;;;17.83;100.00;100981.56;4201617;28;20057;-76
2023/09/09 06:33:56;;;;;;;12.13;9.20;;;18.30;99.90;;;17.87;100.00;100980.16;4201901;28;20034;-76
2023/09/09 06:35:57;;;;;;;13.07;10.23;;;18.40;99.90;;;17.94;100.00;100985.53;4200189;28;20507;-76
2023/09/09 06:37:58;;;;;;;10.77;9.77;;;18.40;99.90;;;17.99;100.00;100983.91;4194333;28;20036;-76
2023/09/09 06:39:59;;;;;;;11.98;9.80;;;18.50;99.90;;;18.03;100.00;100984.34;4198809;28;20392;-76
2023/09/09 06:42:00;;;;;;;11.98;10.20;;;18.50;99.90;;;18.05;100.00;100982.28;4201370;28;20017;-76
2023/09/09 06:44:00;;;;;;;9.98;8.98;;;18.50;99.90;;;18.07;100.00;100985.59;4200310;28;20473;-76
2023/09/09 06:46:01;;;;;;;8.80;8.00;;;18.60;99.90;;;18.12;100.00;100983.16;4193870;28;20419;-76
2023/09/09 06:48:03;;;;;;;9.35;8.50;;;18.60;99.90;;;18.17;100.00;100986.03;4201654;28;20028;-76
2023/09/09 06:50:05;;;;;;;10.77;8.88;;;18.70;99.90;;;18.24;100.00;100992.25;4187037;28;20020;-76
2023/09/09 06:52:06;;;;;;;11.10;9.82;;;18.70;99.90;;;18.30;100.00;100980.75;4190793;28;20047;-76
2023/09/09 06:54:07;;;;;;;10.13;9.07;;;18.80;99.90;;;18.38;100.00;100988.59;4195037;28;20528;-76
2023/09/09 06:56:08;;;;;;;11.27;9.07;;;18.80;99.90;;;18.47;100.00;100992.72;4201546;28;20040;-76
2023/09/09 06:58:08;;;;;;;8.85;7.95;;;18.90;99.90;;;18.51;100.00;100991.34;4201550;28;20036;-76
2023/09/09 07:00:10;;;;;;;11.43;9.73;;;19.00;99.90;;;18.58;100.00;100986.81;4201618;28;20484;-76
2023/09/09 07:02:11;;;;;;;10.63;9.63;;;19.00;99.90;;;18.65;100.00;100990.34;4200342;28;20424;-76
2023/09/09 07:04:12;;;;;;;11.25;10.07;;;19.10;99.90;;;18.71;100.00;100986.84;4197836;28;20033;-76
2023/09/09 07:06:13;;;;;;;11.40;10.35;;;19.20;99.90;;;18.77;100.00;100985.22;4201218;28;20506;-76
2023/09/09 07:08:14;;;;;;;12.30;11.20;;;19.20;99.90;;;18.87;100.00;100987.50;4201624;28;20395;-76
2023/09/09 07:10:15;;;;;;;10.90;9.88;;;19.40;99.90;;;18.94;100.00;100988.31;4200379;28;20032;-76
2023/09/09 07:12:16;;;;;;;10.80;9.80;;;19.40;99.90;;;19.01;100.00;100986.47;4197199;28;20032;-76
2023/09/09 07:14:17;;;;;;;12.02;10.02;;;19.50;99.90;;;19.08;100.00;100993.50;4201349;28;20029;-76
2023/09/09 07:16:18;;;;;;;12.00;10.48;;;19.60;99.90;;;19.15;100.00;100996.13;4201086;28;20032;-76
2023/09/09 07:18:20;;;;;;;11.15;10.10;;;19.60;99.90;;;19.27;100.00;100999.84;4201420;28;20400;-76
2023/09/09 07:20:22;;;;;;;12.70;10.43;;;19.70;99.90;;;19.26;100.00;100999.00;4202493;28;20029;-76
2023/09/09 07:22:22;;;;;;;19.13;15.18;;;19.80;99.90;;;19.41;100.00;101049.69;4203344;28;20028;-76
2023/09/09 07:24:23;;;;;;;20.15;13.80;;;19.90;99.90;;;19.46;100.00;101023.13;4193186;28;20086;-76
2023/09/09 07:26:24;;;;;;;13.20;11.90;;;20.00;99.90;;;19.53;100.00;101007.06;4204476;28;20024;-76
2023/09/09 07:28:25;;;;;;;13.15;11.20;;;20.10;99.90;;;19.58;100.00;101018.78;4204540;28;20029;-76
2023/09/09 07:30:26;;;;;;;15.27;11.40;;;20.10;99.90;;;19.62;100.00;101025.34;4204418;28;20487;-76
2023/09/09 07:32:27;;;;;;;14.27;12.00;;;20.20;99.90;;;19.68;100.00;101048.63;4204441;28;20039;-76
2023/09/09 07:34:28;;;;;;;16.67;12.30;;;20.20;99.90;;;19.80;100.00;101024.75;4204477;28;20102;-76
2023/09/09 07:36:29;;;;;;;10.43;9.32;;;20.30;99.90;;;19.85;100.00;101012.38;4204013;28;20025;-76
2023/09/09 07:38:30;;;;;;;10.20;9.25;;;20.30;99.90;;;19.91;100.00;101013.38;4202727;28;20044;-76
2023/09/09 07:40:31;;;;;;;12.23;10.93;;;20.40;99.90;;;19.91;100.00;101021.41;4191903;28;20033;-76
2023/09/09 07:42:31;;;;;;;12.18;9.95;;;20.50;99.90;;;19.95;100.00;101019.94;4203209;28;20013;-76
2023/09/09 07:44:32;;;;;;;9.88;8.43;;;20.50;99.90;;;19.99;100.00;101015.00;4198737;28;20035;-76
2023/09/09 07:46:33;;;;;;;11.35;9.50;;;20.50;99.90;;;20.04;100.00;101007.97;4202882;28;20039;-76
2023/09/09 07:48:34;;;;;;;11.35;9.38;;;20.60;99.90;;;20.11;100.00;101008.78;4191606;28;20028;-76
2023/09/09 07:50:35;;;;;;;8.50;7.70;;;20.60;99.90;;;20.16;100.00;101014.31;4203518;28;20021;-76
2023/09/09 07:52:36;;;;;;;11.25;10.13;;;20.70;99.90;;;20.23;100.00;101023.16;4204354;28;20027;-76
2023/09/09 07:54:37;;;;;;;13.10;10.23;;;20.80;99.90;;;20.29;100.00;101026.88;4204130;28;20058;-76
2023/09/09 07:56:41;;;;;;;10.90;9.80;;;20.80;99.90;;;20.40;100.00;101031.56;4204012;28;20396;-76
2023/09/09 07:58:42;;;;;;;9.18;8.23;;;20.90;99.90;;;20.48;100.00;101004.53;4204012;28;20067;-76
2023/09/09 08:00:45;;;;;;;12.73;9.63;;;21.00;99.90;;;20.61;100.00;101006.31;4204113;28;20043;-76
2023/09/09 08:02:45;;;;;;;8.05;7.25;;;21.10;99.90;;;20.68;100.00;101013.28;4202621;28;20025;-76
2023/09/09 08:04:47;;;;;;;8.07;6.95;;;21.20;99.90;;;20.75;100.00;101008.72;4203846;28;20365;-76
2023/09/09 08:06:50;;;;;;;8.23;7.43;;;21.30;99.90;;;20.86;100.00;101012.53;4203878;28;20086;-75
2023/09/09 08:08:52;;;;;;;7.85;7.15;;;21.40;99.90;;;20.97;100.00;101009.16;4202647;28;20025;-76
2023/09/09 08:10:53;;;;;;;7.47;6.65;;;21.50;99.90;;;21.11;100.00;101004.56;4201241;28;20040;-76
2023/09/09 08:12:54;;;;;;;7.03;6.32;;;21.60;99.90;;;21.24;100.00;101009.81;4203960;28;20033;-76